createdAt,value
2022-12-20T00:02:21.061Z,99360.41
2022-12-20T00:04:47.756Z,99359.02
2022-12-20T00:07:14.923Z,99355.09
2022-12-20T00:09:41.807Z,99349.10
2022-12-20T00:12:08.207Z,99345.84
2022-12-20T00:14:34.727Z,99346.68
2022-12-20T00:17:01.160Z,99336.58
2022-12-20T00:19:27.577Z,99337.25
2022-12-20T00:21:54.349Z,99340.84
2022-12-20T00:24:26.493Z,99337.41
2022-12-20T00:26:53.310Z,99333.29
2022-12-20T00:29:19.870Z,99333.77
2022-12-20T00:31:46.520Z,99334.42
2022-12-20T00:34:13.189Z,99335.10
2022-12-20T00:36:40.145Z,99340.23
2022-12-20T00:39:06.679Z,99342.98
2022-12-20T00:41:34.661Z,99339.21
2022-12-20T00:44:02.498Z,99338.34
2022-12-20T00:46:29.753Z,99332.31
2022-12-20T00:48:56.528Z,99326.32
2022-12-20T00:51:29.220Z,99323.41
2022-12-20T00:53:55.714Z,99327.67
2022-12-20T00:56:22.601Z,99326.15
2022-12-20T00:58:49.696Z,99326.16
2022-12-20T01:01:25.665Z,99327.88
2022-12-20T01:03:53.462Z,99330.80
2022-12-20T01:06:21.592Z,99327.73
2022-12-20T01:08:48.314Z,99325.50
2022-12-20T01:11:18.594Z,99319.66
2022-12-20T01:13:48.522Z,99318.62
2022-12-20T01:16:29.880Z,99325.48
2022-12-20T01:18:56.882Z,99320.33
2022-12-20T01:21:25.156Z,99318.11
2022-12-20T01:23:52.312Z,99313.47
2022-12-20T01:26:21.813Z,99313.27
2022-12-20T01:28:51.938Z,99315.66
2022-12-20T01:31:20.455Z,99319.06
2022-12-20T01:33:48.063Z,99324.05
2022-12-20T01:36:21.245Z,99323.55
2022-12-20T01:38:48.068Z,99316.68
2022-12-20T01:41:17.941Z,99315.34
2022-12-20T01:44:00.728Z,99315.52
2022-12-20T01:46:30.582Z,99308.16
2022-12-20T01:49:08.254Z,99307.98
2022-12-20T01:51:39.780Z,99313.29
2022-12-20T01:54:25.087Z,99312.64
2022-12-20T01:56:58.577Z,99309.91
2022-12-20T01:59:27.233Z,99315.09
2022-12-20T02:01:58.089Z,99321.26
2022-12-20T02:04:25.347Z,99320.74
2022-12-20T02:06:51.804Z,99321.27
2022-12-20T02:09:18.544Z,99320.11
2022-12-20T02:12:11.854Z,99320.83
2022-12-20T02:15:00.218Z,99315.73
2022-12-20T02:18:07.041Z,99315.30
2022-12-20T02:21:04.519Z,99312.59
2022-12-20T02:24:08.634Z,99307.63
2022-12-20T02:26:53.390Z,99304.39
2022-12-20T02:29:37.580Z,99300.66
2022-12-20T02:32:24.867Z,99298.80
2022-12-20T02:34:52.036Z,99295.23
2022-12-20T02:37:18.577Z,99297.16
2022-12-20T02:39:46.464Z,99295.83
2022-12-20T02:42:15.475Z,99293.48
2022-12-20T02:44:52.050Z,99287.02
2022-12-20T02:47:24.883Z,99277.98
2022-12-20T02:49:54.016Z,99272.52
2022-12-20T02:52:23.578Z,99273.52
2022-12-20T02:54:50.166Z,99268.40
2022-12-20T02:57:26.588Z,99265.33
2022-12-20T03:00:02.577Z,99259.84
2022-12-20T03:02:30.485Z,99265.15
2022-12-20T03:04:58.652Z,99262.90
2022-12-20T03:07:25.155Z,99260.48
2022-12-20T03:09:51.571Z,99253.96
2022-12-20T03:12:17.973Z,99259.77
2022-12-20T03:14:44.502Z,99255.81
2022-12-20T03:17:11.141Z,99251.67
2022-12-20T03:19:37.780Z,99250.65
2022-12-20T03:22:04.553Z,99244.98
2022-12-20T03:24:31.051Z,99234.00
2022-12-20T03:26:57.583Z,99234.85
2022-12-20T03:29:24.145Z,99243.08
2022-12-20T03:31:50.543Z,99240.00
2022-12-20T03:34:17.079Z,99239.85
2022-12-20T03:36:43.742Z,99233.55
2022-12-20T03:39:10.192Z,99229.62
2022-12-20T03:41:37.439Z,99225.70
2022-12-20T03:44:04.242Z,99228.11
2022-12-20T03:46:30.762Z,99221.80
2022-12-20T03:48:57.254Z,99221.12
2022-12-20T03:51:23.828Z,99218.87
2022-12-20T03:53:50.365Z,99220.92
2022-12-20T03:56:16.911Z,99223.14
2022-12-20T03:58:43.447Z,99223.79
2022-12-20T04:01:21.566Z,99227.39
2022-12-20T04:03:48.597Z,99226.20
2022-12-20T04:06:15.813Z,99224.29
2022-12-20T04:08:42.267Z,99228.90
2022-12-20T04:11:09.161Z,99230.05
2022-12-20T04:13:35.691Z,99231.42
2022-12-20T04:16:02.197Z,99228.00
2022-12-20T04:18:28.826Z,99222.16
2022-12-20T04:20:55.436Z,99218.91
2022-12-20T04:23:22.191Z,99218.06
2022-12-20T04:25:48.944Z,99214.66
2022-12-20T04:28:15.377Z,99212.13
2022-12-20T04:30:41.811Z,99216.25
2022-12-20T04:33:08.463Z,99219.02
2022-12-20T04:35:34.921Z,99210.65
2022-12-20T04:38:01.395Z,99200.55
2022-12-20T04:40:27.973Z,99197.83
2022-12-20T04:42:54.619Z,99192.23
2022-12-20T04:45:21.066Z,99192.06
2022-12-20T04:47:47.508Z,99193.11
2022-12-20T04:50:14.032Z,99195.52
2022-12-20T04:52:47.118Z,99195.00
2022-12-20T04:55:14.614Z,99193.27
2022-12-20T04:57:41.142Z,99182.14
2022-12-20T05:00:08.925Z,99176.30
2022-12-20T05:02:35.527Z,99179.56
2022-12-20T05:05:02.724Z,99169.13
2022-12-20T05:07:29.190Z,99169.12
2022-12-20T05:09:55.645Z,99168.40
2022-12-20T05:12:22.082Z,99170.27
2022-12-20T05:14:48.556Z,99170.08
2022-12-20T05:17:15.194Z,99161.16
2022-12-20T05:19:41.587Z,99164.23
2022-12-20T05:22:10.724Z,99165.95
2022-12-20T05:24:37.203Z,99163.23
2022-12-20T05:27:03.980Z,99163.24
2022-12-20T05:29:30.610Z,99168.40
2022-12-20T05:31:57.235Z,99165.48
2022-12-20T05:34:23.774Z,99161.05
2022-12-20T05:36:50.495Z,99160.73
2022-12-20T05:39:17.133Z,99160.08
2022-12-20T05:41:43.576Z,99158.73
2022-12-20T05:44:10.104Z,99156.34
2022-12-20T05:46:36.719Z,99159.95
2022-12-20T05:49:03.258Z,99161.84
2022-12-20T05:51:29.707Z,99163.23
2022-12-20T05:53:56.179Z,99160.51
2022-12-20T05:56:22.732Z,99162.90
2022-12-20T05:58:49.268Z,99163.73
2022-12-20T06:01:15.731Z,99171.73
2022-12-20T06:03:42.367Z,99168.98
2022-12-20T06:06:13.837Z,99163.67
2022-12-20T06:08:40.830Z,99166.41
2022-12-20T06:11:07.295Z,99165.56
2022-12-20T06:13:33.938Z,99167.98
2022-12-20T06:16:00.826Z,99173.16
2022-12-20T06:18:27.510Z,99180.23
2022-12-20T06:20:54.458Z,99184.89
2022-12-20T06:23:21.317Z,99187.65
2022-12-20T06:25:48.366Z,99179.13
2022-12-20T06:28:14.762Z,99180.84
2022-12-20T06:30:41.228Z,99179.12
2022-12-20T06:33:07.995Z,99176.19
2022-12-20T06:35:34.403Z,99180.97
2022-12-20T06:38:00.970Z,99173.24
2022-12-20T06:40:27.506Z,99173.25
2022-12-20T06:42:53.957Z,99180.08
2022-12-20T06:45:20.489Z,99182.12
2022-12-20T06:47:47.006Z,99181.23
2022-12-20T06:50:13.418Z,99186.02
2022-12-20T06:52:39.858Z,99185.66
2022-12-20T06:55:06.953Z,99191.11
2022-12-20T06:57:33.387Z,99189.20
2022-12-20T06:59:59.926Z,99190.88
2022-12-20T07:02:27.876Z,99187.77
2022-12-20T07:04:55.122Z,99190.46
2022-12-20T07:07:21.692Z,99195.02
2022-12-20T07:09:48.143Z,99191.36
2022-12-20T07:12:14.721Z,99192.30
2022-12-20T07:14:41.208Z,99184.88
2022-12-20T07:17:08.200Z,99186.67
2022-12-20T07:19:35.819Z,99190.53
2022-12-20T07:22:04.210Z,99190.27
2022-12-20T07:24:30.627Z,99191.19
2022-12-20T07:26:57.182Z,99187.51
2022-12-20T07:29:24.132Z,99184.38
2022-12-20T07:31:52.768Z,99183.89
2022-12-20T07:34:19.579Z,99180.30
2022-12-20T07:36:46.131Z,99176.20
2022-12-20T07:39:12.745Z,99173.30
2022-12-20T07:41:40.220Z,99172.75
2022-12-20T07:44:06.786Z,99171.15
2022-12-20T07:46:33.736Z,99174.84
2022-12-20T07:49:00.453Z,99171.63
2022-12-20T07:51:31.112Z,99170.10
2022-12-20T07:54:11.872Z,99167.89
2022-12-20T07:56:42.961Z,99163.89
2022-12-20T07:59:14.032Z,99163.71
2022-12-20T08:01:43.972Z,99159.30
2022-12-20T08:04:21.323Z,99151.16
2022-12-20T08:06:49.807Z,99157.23
2022-12-20T08:09:16.899Z,99156.61
2022-12-20T08:11:47.228Z,99155.20
2022-12-20T08:14:14.522Z,99158.48
2022-12-20T08:16:41.070Z,99155.30
2022-12-20T08:19:08.494Z,99156.57
2022-12-20T08:21:35.236Z,99155.38
2022-12-20T08:24:03.236Z,99157.60
2022-12-20T08:26:29.964Z,99161.83
2022-12-20T08:28:56.707Z,99162.29
2022-12-20T08:31:23.500Z,99162.71
2022-12-20T08:33:55.015Z,99160.39
2022-12-20T08:36:21.651Z,99161.80
2022-12-20T08:38:48.188Z,99155.95
2022-12-20T08:41:15.978Z,99154.74
2022-12-20T08:43:43.075Z,99158.90
2022-12-20T08:46:11.046Z,99156.69
2022-12-20T08:48:37.559Z,99154.97
2022-12-20T08:51:07.510Z,99155.39
2022-12-20T08:53:35.839Z,99152.67
2022-12-20T08:56:17.332Z,99151.27
2022-12-20T08:58:44.342Z,99156.91
2022-12-20T09:01:14.047Z,99156.29
2022-12-20T09:03:41.542Z,99151.33
2022-12-20T09:06:10.716Z,99145.64
2022-12-20T09:08:39.024Z,99140.03
2022-12-20T09:11:09.775Z,99142.02
2022-12-20T09:13:41.660Z,99129.61
2022-12-20T09:16:11.383Z,99133.05
2022-12-20T09:18:37.876Z,99131.80
2022-12-20T09:21:06.480Z,99131.88
2022-12-20T09:23:34.755Z,99126.06
2022-12-20T09:26:03.509Z,99131.67
2022-12-20T09:28:30.882Z,99135.20
2022-12-20T09:31:02.225Z,99131.03
2022-12-20T09:33:29.199Z,99126.85
2022-12-20T09:35:55.641Z,99123.66
2022-12-20T09:38:22.163Z,99124.55
2022-12-20T09:40:52.209Z,99129.88
2022-12-20T09:43:20.381Z,99126.02
2022-12-20T09:45:48.773Z,99118.36
2022-12-20T09:48:20.101Z,99112.38
2022-12-20T09:51:18.576Z,99111.98
2022-12-20T09:53:54.056Z,99113.52
2022-12-20T09:56:26.519Z,99112.52
2022-12-20T09:59:06.328Z,99104.11
2022-12-20T10:01:39.497Z,99102.15
2022-12-20T10:04:30.729Z,99102.56
2022-12-20T10:07:33.467Z,99098.61
2022-12-20T10:10:28.481Z,99091.60
2022-12-20T10:13:00.941Z,99089.17
2022-12-20T10:15:37.452Z,99082.96
2022-12-20T10:18:06.756Z,99074.44
2022-12-20T10:20:54.126Z,99077.05
2022-12-20T10:23:44.791Z,99076.20
2022-12-20T10:26:12.984Z,99073.76
2022-12-20T10:28:40.239Z,99072.61
2022-12-20T10:31:12.755Z,99066.04
2022-12-20T10:33:40.569Z,99060.46
2022-12-20T10:36:27.549Z,99055.48
2022-12-20T10:38:57.719Z,99049.65
2022-12-20T10:41:30.324Z,99048.12
2022-12-20T10:44:06.271Z,99051.90
2022-12-20T10:46:42.518Z,99046.30
2022-12-20T10:49:41.739Z,99040.95
2022-12-20T10:52:08.224Z,99038.74
2022-12-20T10:54:37.800Z,99035.23
2022-12-20T10:57:28.399Z,99035.60
2022-12-20T11:00:01.450Z,99034.08
2022-12-20T11:02:41.555Z,99030.84
2022-12-20T11:05:10.781Z,99031.45
2022-12-20T11:08:24.581Z,99027.09
2022-12-20T11:10:38.124Z,99021.30
2022-12-20T11:13:04.579Z,99012.84
2022-12-20T11:15:34.791Z,99004.96
2022-12-20T11:18:13.847Z,98996.17
2022-12-20T11:20:58.940Z,98991.33
2022-12-20T11:24:06.416Z,98994.35
2022-12-20T11:27:11.962Z,98992.23
2022-12-20T11:29:50.745Z,98984.73
2022-12-20T11:32:48.883Z,98978.23
2022-12-20T11:35:39.794Z,98972.23
2022-12-20T11:38:29.085Z,98972.89
2022-12-20T11:41:01.032Z,98965.58
2022-12-20T11:44:15.646Z,98946.61
2022-12-20T11:46:46.799Z,98937.45
2022-12-20T11:49:50.812Z,98953.55
2022-12-20T11:52:39.217Z,98979.59
2022-12-20T11:55:18.663Z,98967.83
2022-12-20T11:58:21.358Z,98962.81
2022-12-20T12:00:56.086Z,98959.70
2022-12-20T12:03:34.785Z,98959.16
2022-12-20T12:06:12.417Z,98937.46
2022-12-20T12:08:49.048Z,98941.81
2022-12-20T12:12:04.040Z,98948.86
2022-12-20T12:14:18.066Z,98942.29
2022-12-20T12:16:51.432Z,98948.52
2022-12-20T12:19:18.057Z,98951.85
2022-12-20T12:21:51.340Z,98947.55
2022-12-20T12:24:29.078Z,98939.54
2022-12-20T12:26:56.083Z,98939.85
2022-12-20T12:29:22.593Z,98945.99
2022-12-20T12:31:55.248Z,98945.54
2022-12-20T12:34:45.829Z,98946.17
2022-12-20T12:37:31.158Z,98940.33
2022-12-20T12:40:06.871Z,98940.79
2022-12-20T12:42:53.816Z,98944.91
2022-12-20T12:45:28.279Z,98930.30
2022-12-20T12:48:01.418Z,98930.73
2022-12-20T12:50:32.435Z,98935.08
2022-12-20T12:53:15.993Z,98929.27
2022-12-20T12:55:45.193Z,98928.23
2022-12-20T12:58:32.256Z,98913.80
2022-12-20T13:01:01.771Z,98896.98
2022-12-20T13:03:45.368Z,98890.46
2022-12-20T13:06:24.234Z,98893.55
2022-12-20T13:08:56.774Z,98885.60
2022-12-20T13:11:36.237Z,98900.34
2022-12-20T13:14:31.941Z,98909.50
2022-12-20T13:17:13.723Z,98910.77
2022-12-20T13:19:53.628Z,98907.88
2022-12-20T13:22:22.613Z,98913.03
2022-12-20T13:24:54.041Z,98911.30
2022-12-20T13:27:36.671Z,98916.92
2022-12-20T13:30:08.943Z,98911.92
2022-12-20T13:32:47.740Z,98907.56
2022-12-20T13:35:26.426Z,98896.33
2022-12-20T13:37:55.059Z,98901.59
2022-12-20T13:40:45.209Z,98901.49
2022-12-20T13:43:20.691Z,98899.13
2022-12-20T13:46:13.022Z,98896.76
2022-12-20T13:48:50.096Z,98890.93
2022-12-20T13:51:27.659Z,98892.98
2022-12-20T13:54:08.535Z,98895.41
2022-12-20T13:56:47.358Z,98890.14
2022-12-20T13:59:27.547Z,98885.77
2022-12-20T14:02:00.235Z,98877.77
2022-12-20T14:04:45.073Z,98876.73
2022-12-20T14:07:19.326Z,98876.75
2022-12-20T14:09:54.630Z,98884.34
2022-12-20T14:12:26.452Z,98887.30
2022-12-20T14:14:57.034Z,98888.23
2022-12-20T14:17:29.888Z,98886.94
2022-12-20T14:20:13.044Z,98880.52
2022-12-20T14:23:00.738Z,98878.05
2022-12-20T14:25:56.694Z,98878.69
2022-12-20T14:28:44.153Z,98881.38
2022-12-20T14:31:32.716Z,98887.50
2022-12-20T14:34:11.203Z,98891.39
2022-12-20T14:36:39.635Z,98893.02
2022-12-20T14:39:28.525Z,98893.60
2022-12-20T14:42:07.930Z,98889.39
2022-12-20T14:44:34.470Z,98890.66
2022-12-20T14:47:12.950Z,98893.63
2022-12-20T14:49:39.866Z,98891.14
2022-12-20T14:52:13.153Z,98889.84
2022-12-20T14:55:09.045Z,98888.05
2022-12-20T14:57:36.659Z,98886.91
2022-12-20T15:00:20.354Z,98890.39
2022-12-20T15:02:56.970Z,98887.16
2022-12-20T15:05:41.054Z,98884.27
2022-12-20T15:08:16.858Z,98879.14
2022-12-20T15:10:56.410Z,98878.95
2022-12-20T15:13:32.513Z,98873.80
2022-12-20T15:16:04.698Z,98876.20
2022-12-20T15:18:31.692Z,98875.16
2022-12-20T15:21:13.822Z,98866.79
2022-12-20T15:23:49.253Z,98869.06
2022-12-20T15:26:17.664Z,98869.57
2022-12-20T15:28:44.656Z,98864.60
2022-12-20T15:31:13.022Z,98863.91
2022-12-20T15:33:42.024Z,98861.17
2022-12-20T15:36:17.522Z,98864.92
2022-12-20T15:41:33.093Z,98861.29
2022-12-20T15:44:05.817Z,98854.77
2022-12-20T15:46:33.016Z,98852.36
2022-12-20T15:48:59.921Z,98859.40
2022-12-20T15:51:35.260Z,98862.49
2022-12-20T15:54:04.362Z,98872.92
2022-12-20T15:56:30.907Z,98877.05
2022-12-20T15:58:57.403Z,98875.34
2022-12-20T16:01:40.771Z,98867.32
2022-12-20T16:04:13.716Z,98875.38
2022-12-20T16:06:40.353Z,98882.42
2022-12-20T16:09:06.827Z,98883.65
2022-12-20T16:11:33.500Z,98881.95
2022-12-20T16:14:00.361Z,98873.89
2022-12-20T16:16:36.685Z,98870.11
2022-12-20T16:19:03.615Z,98864.79
2022-12-20T16:21:33.555Z,98864.48
2022-12-20T16:24:00.428Z,98867.59
2022-12-20T16:26:27.284Z,98866.25
2022-12-20T16:28:55.764Z,98862.89
2022-12-20T16:31:28.967Z,98862.63
2022-12-20T16:33:55.800Z,98862.83
2022-12-20T16:36:23.410Z,98863.09
2022-12-20T16:38:50.957Z,98874.31
2022-12-20T16:41:21.677Z,98881.35
2022-12-20T16:43:48.829Z,98881.02
2022-12-20T16:46:20.744Z,98876.63
2022-12-20T16:48:47.939Z,98875.30
2022-12-20T16:51:25.961Z,98884.39
2022-12-20T16:54:17.974Z,98881.33
2022-12-20T16:56:41.366Z,98878.98
2022-12-20T16:59:19.154Z,98878.52
2022-12-20T17:01:48.692Z,98877.86
2022-12-20T17:04:17.667Z,98877.54
2022-12-20T17:06:46.047Z,98878.77
2022-12-20T17:09:13.200Z,98886.66
2022-12-20T17:11:39.750Z,98882.94
2022-12-20T17:14:12.125Z,98878.35
2022-12-20T17:16:40.071Z,98869.65
2022-12-20T17:19:06.644Z,98866.58
2022-12-20T17:24:28.177Z,98858.95
2022-12-20T17:26:54.868Z,98842.39
2022-12-20T17:29:21.884Z,98828.73
2022-12-20T17:31:48.815Z,98828.80
2022-12-20T17:34:22.845Z,98832.58
2022-12-20T17:36:51.336Z,98828.14
2022-12-20T17:39:18.471Z,98837.90
2022-12-20T17:41:46.288Z,98827.47
2022-12-20T17:44:21.471Z,98819.95
2022-12-20T17:46:48.278Z,98824.55
2022-12-20T17:49:15.606Z,98827.80
2022-12-20T17:51:42.613Z,98835.69
2022-12-20T17:54:18.546Z,98838.27
2022-12-20T17:56:45.983Z,98825.85
2022-12-20T17:59:13.719Z,98821.48
2022-12-20T18:01:41.873Z,98815.05
2022-12-20T18:04:11.369Z,98806.70
2022-12-20T18:06:39.843Z,98797.81
2022-12-20T18:09:11.702Z,98791.34
2022-12-20T18:11:38.309Z,98801.11
2022-12-20T18:14:05.055Z,98802.85
2022-12-20T18:16:33.203Z,98796.38
2022-12-20T18:19:02.609Z,98787.35
2022-12-20T18:21:29.176Z,98778.17
2022-12-20T18:23:55.786Z,98776.69
2022-12-20T18:26:25.538Z,98781.54
2022-12-20T18:28:58.005Z,98781.61
2022-12-20T18:31:26.968Z,98784.40
2022-12-20T18:33:57.968Z,98783.58
2022-12-20T18:36:26.330Z,98782.40
2022-12-20T18:38:53.586Z,98785.14
2022-12-20T18:41:23.075Z,98790.92
2022-12-20T18:43:50.909Z,98781.67
2022-12-20T18:46:20.763Z,98776.89
2022-12-20T18:48:49.686Z,98783.20
2022-12-20T18:51:19.317Z,98780.45
2022-12-20T18:53:47.577Z,98777.02
2022-12-20T18:56:20.459Z,98761.27
2022-12-20T18:58:48.174Z,98763.45
2022-12-20T19:01:22.069Z,98755.92
2022-12-20T19:03:51.116Z,98765.14
2022-12-20T19:06:18.927Z,98761.36
2022-12-20T19:08:45.457Z,98760.48
2022-12-20T19:11:15.457Z,98769.04
2022-12-20T19:13:43.129Z,98764.62
2022-12-20T19:16:18.293Z,98766.01
2022-12-20T19:18:45.647Z,98765.87
2022-12-20T19:21:17.098Z,98758.49
2022-12-20T19:23:45.735Z,98750.11
2022-12-20T19:26:13.827Z,98748.05
2022-12-20T19:28:41.716Z,98751.81
2022-12-20T19:31:19.261Z,98747.55
2022-12-20T19:33:48.130Z,98749.27
2022-12-20T19:36:23.601Z,98748.59
2022-12-20T19:38:53.303Z,98739.87
2022-12-20T19:41:19.954Z,98735.59
2022-12-20T19:43:47.778Z,98739.02
2022-12-20T19:46:15.358Z,98743.83
2022-12-20T19:48:42.391Z,98748.27
2022-12-20T19:51:11.997Z,98744.53
2022-12-20T19:53:43.306Z,98743.52
2022-12-20T19:56:11.693Z,98751.55
2022-12-20T19:58:39.021Z,98747.32
2022-12-20T20:01:07.919Z,98743.57
2022-12-20T20:03:36.555Z,98743.55
2022-12-20T20:06:04.821Z,98740.28
2022-12-20T20:08:32.739Z,98732.06
2022-12-20T20:11:05.340Z,98729.14
2022-12-20T20:13:35.657Z,98730.99
2022-12-20T20:16:03.499Z,98732.86
2022-12-20T20:18:32.972Z,98736.95
2022-12-20T20:20:59.427Z,98740.73
2022-12-20T20:23:27.468Z,98738.36
2022-12-20T20:25:56.222Z,98741.10
2022-12-20T20:28:31.291Z,98735.81
2022-12-20T20:30:58.954Z,98737.35
2022-12-20T20:33:25.646Z,98734.27
2022-12-20T20:36:01.245Z,98734.11
2022-12-20T20:38:29.562Z,98731.39
2022-12-20T20:40:56.671Z,98730.20
2022-12-20T20:43:24.132Z,98726.79
2022-12-20T20:45:51.403Z,98723.55
2022-12-20T20:48:18.449Z,98730.38
2022-12-20T20:50:45.384Z,98725.92
2022-12-20T20:53:13.366Z,98727.12
2022-12-20T20:55:40.034Z,98717.91
2022-12-20T20:58:06.553Z,98715.88
2022-12-20T21:00:33.863Z,98710.60
2022-12-20T21:03:00.601Z,98707.02
2022-12-20T21:08:14.323Z,98699.39
2022-12-20T21:10:41.580Z,98701.64
2022-12-20T21:13:08.127Z,98702.15
2022-12-20T21:15:36.531Z,98704.02
2022-12-20T21:18:03.042Z,98701.45
2022-12-20T21:20:29.450Z,98705.02
2022-12-20T21:22:55.898Z,98703.98
2022-12-20T21:25:22.291Z,98699.55
2022-12-20T21:27:48.787Z,98696.49
2022-12-20T21:30:15.545Z,98698.55
2022-12-20T21:32:41.941Z,98698.37
2022-12-20T21:35:09.011Z,98701.80
2022-12-20T21:37:35.551Z,98697.54
2022-12-20T21:40:01.976Z,98693.98
2022-12-20T21:42:29.251Z,98693.83
2022-12-20T21:44:55.676Z,98700.30
2022-12-20T21:47:24.162Z,98696.55
2022-12-20T21:49:51.433Z,98691.08
2022-12-20T21:52:17.940Z,98693.15
2022-12-20T21:54:44.512Z,98688.38
2022-12-20T21:57:10.990Z,98680.88
2022-12-20T21:59:38.103Z,98678.69
2022-12-20T22:02:05.332Z,98671.20
2022-12-20T22:04:33.017Z,98667.80
2022-12-20T22:06:59.452Z,98672.80
2022-12-20T22:09:26.039Z,98674.05
2022-12-20T22:11:52.684Z,98668.29
2022-12-20T22:14:19.293Z,98663.41
2022-12-20T22:16:46.048Z,98661.09
2022-12-20T22:19:14.267Z,98650.91
2022-12-20T22:21:41.193Z,98648.73
2022-12-20T22:24:09.027Z,98648.29
2022-12-20T22:26:35.571Z,98643.56
2022-12-20T22:29:05.070Z,98636.96
2022-12-20T22:31:32.452Z,98638.02
2022-12-20T22:33:59.895Z,98635.52
2022-12-20T22:36:26.653Z,98632.84
2022-12-20T22:38:57.382Z,98635.42
2022-12-20T22:41:29.804Z,98630.68
2022-12-20T22:43:59.069Z,98626.63
2022-12-20T22:46:28.663Z,98622.27
2022-12-20T22:48:55.524Z,98616.17
2022-12-20T22:51:23.585Z,98616.05
2022-12-20T22:53:50.122Z,98610.13
2022-12-20T22:56:18.511Z,98611.69
2022-12-20T22:58:46.172Z,98614.96
2022-12-20T23:01:14.623Z,98609.37
2022-12-20T23:03:41.871Z,98608.73
2022-12-20T23:06:12.677Z,98608.92
2022-12-20T23:08:40.143Z,98607.25
2022-12-20T23:11:15.164Z,98600.47
2022-12-20T23:13:42.227Z,98600.29
2022-12-20T23:16:08.866Z,98589.76
2022-12-20T23:18:35.475Z,98584.30
2022-12-20T23:21:02.001Z,98583.47
2022-12-20T23:23:28.433Z,98583.15
2022-12-20T23:25:54.959Z,98593.37
2022-12-20T23:28:21.429Z,98590.48
2022-12-20T23:30:47.957Z,98588.63
2022-12-20T23:33:14.506Z,98578.09
2022-12-20T23:35:40.938Z,98579.80
2022-12-20T23:38:07.339Z,98580.33
2022-12-20T23:40:33.913Z,98578.79
2022-12-20T23:43:00.447Z,98579.81
2022-12-20T23:45:26.989Z,98581.34
2022-12-20T23:47:53.526Z,98579.48
2022-12-20T23:50:19.949Z,98573.36
2022-12-20T23:52:46.388Z,98560.27
2022-12-20T23:55:13.700Z,98553.98
2022-12-20T23:57:40.091Z,98549.56
